Terminal Aerodrome Forecast
Issued by NWS

Home | Current Version | Previous Version | Text Only | Print | Product List | Glossary On
Versions: 1 2 3 4 5 6 7 8 9 10 11 12 13 14
713
FTUS43 KAPX 231728
TAFMBL
TAF
KMBL 231728Z 2318/2418 02006KT 6SM -SHRA SCT008 OVC100
     FM232200 35008KT 3SM RA OVC010
     FM240200 35014KT 4SM RA OVC015
     FM240700 32019G28KT 2SM RA OVC010
     FM241200 29016G29KT 2SM RA OVC008=

USA.gov is the U.S. government's official web portal to all federal, state and local government web resources and services.